Time;durP1;ratioP1;P1;durP2;ratioP2;P2;SDS_P1;SDS_P2;PMS_P1;PMS_P2;Temp;Humidity;BMP_temperature;BMP_pressure;BME280_temperature;BME280_humidity;BME280_pressure;Samples;Min_cycle;Max_cycle;Signal;HPM_P1;HPM_P2
2021/01/15 00:00:06;;;;;;;14.23;9.13;;;;;;;;;;5078814;28;20191;-70
2021/01/15 00:02:32;;;;;;;17.37;8.70;;;;;;;;;;5090010;28;20262;-70
2021/01/15 00:04:57;;;;;;;13.60;8.50;;;;;;;;;;5079504;28;20283;-71
2021/01/15 00:07:22;;;;;;;16.10;8.77;;;;;;;;;;5090081;28;20210;-70
2021/01/15 00:09:48;;;;;;;14.50;9.17;;;;;;;;;;5079061;28;20189;-71
2021/01/15 00:12:13;;;;;;;15.73;8.73;;;;;;;;;;5089965;28;20194;-70
2021/01/15 00:14:39;;;;;;;15.20;9.63;;;;;;;;;;5083651;28;20184;-71
2021/01/15 00:17:04;;;;;;;18.57;9.53;;;;;;;;;;5087398;28;20527;-70
2021/01/15 00:19:29;;;;;;;16.53;9.23;;;;;;;;;;5087287;28;20184;-70
2021/01/15 00:21:55;;;;;;;17.90;8.97;;;;;;;;;;5061189;28;20210;-70
2021/01/15 00:24:20;;;;;;;15.73;9.23;;;;;;;;;;5089237;28;20713;-70
2021/01/15 00:26:47;;;;;;;15.57;9.03;;;;;;;;;;5078195;28;20226;-70
2021/01/15 00:29:13;;;;;;;14.13;9.43;;;;;;;;;;5085584;28;20184;-70
2021/01/15 00:31:41;;;;;;;17.50;9.83;;;;;;;;;;5080511;28;20188;-70
2021/01/15 00:34:09;;;;;;;17.83;8.63;;;;;;;;;;5086653;28;20176;-70
2021/01/15 00:36:36;;;;;;;17.33;9.13;;;;;;;;;;5077362;28;20184;-70
2021/01/15 00:39:04;;;;;;;16.30;8.77;;;;;;;;;;5087889;28;20226;-70
2021/01/15 00:41:33;;;;;;;15.57;9.13;;;;;;;;;;5081566;28;20626;-70
2021/01/15 00:43:58;;;;;;;17.50;9.87;;;;;;;;;;5087289;28;20203;-70
2021/01/15 00:46:33;;;;;;;16.27;9.53;;;;;;;;;;5081774;28;20187;-70
2021/01/15 00:49:05;;;;;;;16.23;9.13;;;;;;;;;;5085850;28;20183;-70
2021/01/15 00:51:32;;;;;;;13.43;8.80;;;;;;;;;;5090400;28;20187;-70
2021/01/15 00:53:58;;;;;;;15.13;8.90;;;;;;;;;;5081846;28;20188;-70
2021/01/15 00:56:23;;;;;;;15.13;9.43;;;;;;;;;;5088257;28;20184;-70
2021/01/15 00:58:50;;;;;;;16.93;9.27;;;;;;;;;;5077405;28;20226;-70
2021/01/15 01:01:17;;;;;;;16.07;9.63;;;;;;;;;;5072542;28;20180;-71
2021/01/15 01:03:43;;;;;;;15.07;9.07;;;;;;;;;;5075640;28;20204;-70
2021/01/15 01:06:10;;;;;;;15.73;9.37;;;;;;;;;;5090787;28;20207;-70
2021/01/15 01:08:36;;;;;;;16.87;9.80;;;;;;;;;;5077872;28;20267;-70
2021/01/15 01:11:01;;;;;;;18.03;10.20;;;;;;;;;;5088076;28;20262;-70
2021/01/15 01:13:26;;;;;;;15.97;9.53;;;;;;;;;;5078583;28;20555;-70
2021/01/15 01:15:52;;;;;;;19.47;11.03;;;;;;;;;;5088236;28;20241;-70
2021/01/15 01:18:17;;;;;;;16.27;10.27;;;;;;;;;;5077661;28;20200;-71
2021/01/15 01:20:42;;;;;;;17.80;10.80;;;;;;;;;;5084205;28;20188;-71
2021/01/15 01:23:07;;;;;;;17.23;10.40;;;;;;;;;;5077794;28;20203;-71
2021/01/15 01:25:33;;;;;;;18.40;10.93;;;;;;;;;;5081433;28;20266;-70
2021/01/15 01:27:58;;;;;;;19.07;10.77;;;;;;;;;;5086719;28;20198;-70
2021/01/15 01:30:24;;;;;;;21.93;11.33;;;;;;;;;;5079862;28;20207;-71
2021/01/15 01:32:49;;;;;;;19.43;11.37;;;;;;;;;;5069801;28;20184;-70
2021/01/15 01:35:14;;;;;;;18.80;11.20;;;;;;;;;;5080443;28;20191;-70
2021/01/15 01:37:39;;;;;;;19.30;11.80;;;;;;;;;;5087174;28;20226;-70
2021/01/15 01:40:05;;;;;;;21.50;11.53;;;;;;;;;;5061334;28;20195;-71
2021/01/15 01:42:31;;;;;;;20.33;11.90;;;;;;;;;;5085975;28;20195;-71
2021/01/15 01:44:56;;;;;;;20.73;12.67;;;;;;;;;;5050053;28;20212;-71
2021/01/15 01:47:22;;;;;;;24.43;12.87;;;;;;;;;;5087397;28;20625;-71
2021/01/15 01:49:47;;;;;;;19.50;11.67;;;;;;;;;;5076155;28;20706;-71
2021/01/15 01:52:13;;;;;;;20.67;11.93;;;;;;;;;;5084349;28;20188;-71
2021/01/15 01:54:39;;;;;;;20.50;12.33;;;;;;;;;;5078864;28;20614;-71
2021/01/15 01:57:06;;;;;;;20.07;12.63;;;;;;;;;;5083720;28;20211;-71
2021/01/15 01:59:32;;;;;;;19.47;12.43;;;;;;;;;;5086754;28;20192;-71
2021/01/15 02:01:57;;;;;;;23.10;12.47;;;;;;;;;;5076731;28;20549;-71
2021/01/15 02:04:23;;;;;;;22.60;12.70;;;;;;;;;;5087689;28;20211;-71
2021/01/15 02:06:49;;;;;;;21.83;11.97;;;;;;;;;;5078159;28;20682;-71
2021/01/15 02:09:23;;;;;;;25.17;12.93;;;;;;;;;;5086115;28;20188;-71
2021/01/15 02:12:05;;;;;;;22.27;12.47;;;;;;;;;;5076627;28;20188;-71
2021/01/15 02:14:47;;;;;;;25.20;13.53;;;;;;;;;;5085545;28;20191;-71
2021/01/15 02:17:17;;;;;;;23.73;13.13;;;;;;;;;;5078010;28;20184;-71
2021/01/15 02:20:02;;;;;;;23.93;13.50;;;;;;;;;;5083824;28;20191;-71
2021/01/15 02:22:44;;;;;;;25.93;13.70;;;;;;;;;;5057978;28;20289;-71
2021/01/15 02:25:37;;;;;;;25.57;14.40;;;;;;;;;;5083453;28;20187;-71
2021/01/15 02:28:17;;;;;;;23.17;13.47;;;;;;;;;;5033723;28;20208;-71
2021/01/15 02:31:11;;;;;;;25.83;13.87;;;;;;;;;;5067554;28;20195;-70
2021/01/15 02:34:13;;;;;;;24.97;13.53;;;;;;;;;;5076940;28;20542;-71
2021/01/15 02:36:57;;;;;;;25.97;13.23;;;;;;;;;;5086803;28;20638;-71
2021/01/15 02:39:43;;;;;;;26.87;13.20;;;;;;;;;;5082956;28;20199;-71
2021/01/15 02:42:10;;;;;;;29.17;13.87;;;;;;;;;;5080734;28;20188;-71
2021/01/15 02:44:39;;;;;;;24.67;14.30;;;;;;;;;;5084913;28;20219;-70
2021/01/15 02:47:11;;;;;;;26.47;13.63;;;;;;;;;;5088961;28;20195;-71
2021/01/15 02:49:36;;;;;;;29.27;13.83;;;;;;;;;;5076985;28;20192;-71
2021/01/15 02:52:05;;;;;;;29.80;14.20;;;;;;;;;;5092206;28;20202;-70
2021/01/15 02:54:33;;;;;;;26.17;14.43;;;;;;;;;;5076535;28;20183;-71
2021/01/15 02:56:58;;;;;;;24.53;14.03;;;;;;;;;;5069294;28;20553;-70
2021/01/15 02:59:23;;;;;;;24.60;13.53;;;;;;;;;;5082441;28;20208;-70
2021/01/15 03:02:02;;;;;;;25.40;14.40;;;;;;;;;;5086507;28;20176;-70
2021/01/15 03:04:49;;;;;;;24.23;13.40;;;;;;;;;;5080232;28;20203;-71
2021/01/15 03:07:15;;;;;;;23.13;13.87;;;;;;;;;;5091613;28;20739;-71
2021/01/15 03:09:44;;;;;;;25.30;14.23;;;;;;;;;;5081567;28;20188;-70
2021/01/15 03:12:10;;;;;;;26.57;14.97;;;;;;;;;;5090426;28;20229;-70
2021/01/15 03:14:36;;;;;;;30.63;15.50;;;;;;;;;;5080518;28;20595;-71
2021/01/15 03:17:05;;;;;;;29.73;14.93;;;;;;;;;;5080409;28;20192;-71
2021/01/15 03:19:32;;;;;;;27.53;14.57;;;;;;;;;;5079062;28;20209;-70
2021/01/15 03:22:07;;;;;;;29.60;15.60;;;;;;;;;;5090453;28;21083;-71
2021/01/15 03:24:33;;;;;;;26.90;14.37;;;;;;;;;;5079601;28;20211;-71
2021/01/15 03:26:59;;;;;;;29.57;15.10;;;;;;;;;;5090351;28;20191;-71
2021/01/15 03:29:25;;;;;;;26.70;15.57;;;;;;;;;;5085140;28;20176;-71
2021/01/15 03:31:50;;;;;;;31.80;16.30;;;;;;;;;;5087876;28;20202;-71
2021/01/15 03:34:15;;;;;;;30.77;16.90;;;;;;;;;;5088846;28;20647;-71
2021/01/15 03:36:41;;;;;;;27.20;15.13;;;;;;;;;;5083482;28;20180;-70
2021/01/15 03:39:06;;;;;;;31.47;16.53;;;;;;;;;;5089738;28;20224;-70
2021/01/15 03:41:31;;;;;;;27.43;15.23;;;;;;;;;;5079627;28;20220;-70
2021/01/15 03:43:57;;;;;;;33.70;16.13;;;;;;;;;;5089666;28;20675;-70
2021/01/15 03:46:22;;;;;;;34.87;17.17;;;;;;;;;;5080986;28;20706;-70
2021/01/15 03:48:47;;;;;;;32.47;17.27;;;;;;;;;;5090523;28;20314;-71
2021/01/15 03:51:13;;;;;;;33.17;17.63;;;;;;;;;;5089859;28;20809;-70
2021/01/15 03:53:39;;;;;;;30.00;16.27;;;;;;;;;;5086811;28;20172;-70
2021/01/15 03:56:05;;;;;;;31.30;16.20;;;;;;;;;;5081255;28;20535;-70
2021/01/15 03:58:30;;;;;;;32.40;16.67;;;;;;;;;;5090925;28;20187;-70
2021/01/15 04:00:56;;;;;;;36.00;17.80;;;;;;;;;;5094702;28;20185;-70
2021/01/15 04:03:21;;;;;;;32.23;16.80;;;;;;;;;;5077101;28;20547;-70
2021/01/15 04:05:46;;;;;;;37.53;17.13;;;;;;;;;;5086633;28;20546;-70
2021/01/15 04:08:12;;;;;;;36.53;17.10;;;;;;;;;;5083419;28;20233;-70
2021/01/15 04:10:37;;;;;;;34.07;17.33;;;;;;;;;;5095502;28;20549;-70
2021/01/15 04:13:02;;;;;;;36.67;17.27;;;;;;;;;;5079873;28;20677;-70
2021/01/15 04:15:28;;;;;;;35.73;18.20;;;;;;;;;;5077147;28;20192;-70
2021/01/15 04:17:53;;;;;;;36.00;17.97;;;;;;;;;;5082179;28;20691;-70
2021/01/15 04:20:19;;;;;;;30.67;17.43;;;;;;;;;;5096521;28;20231;-70
2021/01/15 04:22:45;;;;;;;32.00;16.50;;;;;;;;;;5083269;28;20184;-70
2021/01/15 04:25:12;;;;;;;32.97;17.23;;;;;;;;;;5088167;28;20180;-70
2021/01/15 04:27:38;;;;;;;38.00;17.13;;;;;;;;;;5079891;28;20239;-70
2021/01/15 04:30:12;;;;;;;31.87;16.33;;;;;;;;;;5086169;28;20192;-70
2021/01/15 04:32:45;;;;;;;29.53;16.20;;;;;;;;;;5078811;28;20222;-70
2021/01/15 04:35:11;;;;;;;27.77;16.20;;;;;;;;;;5090482;28;20283;-70
2021/01/15 04:37:36;;;;;;;31.43;16.73;;;;;;;;;;5082086;28;20232;-70
2021/01/15 04:40:03;;;;;;;31.87;16.70;;;;;;;;;;5056254;28;20189;-70
2021/01/15 04:42:33;;;;;;;32.77;17.20;;;;;;;;;;5070613;28;20176;-71
2021/01/15 04:44:58;;;;;;;33.50;16.60;;;;;;;;;;5058383;28;20220;-70
2021/01/15 04:47:25;;;;;;;29.17;15.47;;;;;;;;;;5067787;28;20524;-70
2021/01/15 04:49:52;;;;;;;29.70;16.03;;;;;;;;;;5060098;28;20266;-70
2021/01/15 04:52:19;;;;;;;31.47;15.97;;;;;;;;;;5070871;28;20702;-70
2021/01/15 04:54:57;;;;;;;29.73;15.90;;;;;;;;;;5060360;28;20187;-70
2021/01/15 04:57:25;;;;;;;29.97;16.83;;;;;;;;;;5074766;28;20177;-70
2021/01/15 04:59:54;;;;;;;30.47;15.83;;;;;;;;;;5056543;28;20226;-70
2021/01/15 05:02:19;;;;;;;30.63;15.93;;;;;;;;;;5070932;28;20199;-70
2021/01/15 05:04:46;;;;;;;24.20;14.93;;;;;;;;;;5057675;28;20672;-70
2021/01/15 05:07:13;;;;;;;28.37;16.67;;;;;;;;;;5064003;28;20676;-70
2021/01/15 05:09:43;;;;;;;29.67;16.30;;;;;;;;;;5057732;28;20197;-70
2021/01/15 05:12:13;;;;;;;26.77;15.03;;;;;;;;;;5073419;28;20185;-69
2021/01/15 05:14:41;;;;;;;30.70;16.37;;;;;;;;;;5063861;28;20191;-69
2021/01/15 05:17:07;;;;;;;25.83;15.23;;;;;;;;;;5063942;28;20190;-70
2021/01/15 05:19:38;;;;;;;31.23;16.23;;;;;;;;;;5063449;28;20223;-70
2021/01/15 05:22:03;;;;;;;29.63;16.40;;;;;;;;;;5056903;28;20645;-70
2021/01/15 05:24:28;;;;;;;33.27;16.90;;;;;;;;;;5060534;28;20204;-70
2021/01/15 05:26:54;;;;;;;26.30;15.20;;;;;;;;;;5060711;28;20193;-71
2021/01/15 05:29:19;;;;;;;29.20;15.23;;;;;;;;;;5065379;28;20184;-71
2021/01/15 05:31:59;;;;;;;28.13;15.27;;;;;;;;;;5051211;28;20185;-71
2021/01/15 05:34:26;;;;;;;29.23;15.30;;;;;;;;;;5061597;28;20181;-69
2021/01/15 05:36:53;;;;;;;29.83;16.30;;;;;;;;;;5057724;28;20688;-69
2021/01/15 05:39:27;;;;;;;31.07;15.73;;;;;;;;;;5077965;28;20551;-71
2021/01/15 05:42:00;;;;;;;29.13;15.67;;;;;;;;;;5080771;28;20546;-71
2021/01/15 05:44:31;;;;;;;29.53;15.83;;;;;;;;;;5083382;28;20208;-70
2021/01/15 05:47:01;;;;;;;26.10;15.30;;;;;;;;;;5093030;28;20211;-70
2021/01/15 05:49:30;;;;;;;30.13;16.00;;;;;;;;;;5086998;28;20657;-70
2021/01/15 05:52:08;;;;;;;27.57;15.63;;;;;;;;;;5080287;28;20200;-70
2021/01/15 05:54:35;;;;;;;31.70;16.53;;;;;;;;;;5087259;28;20627;-71
2021/01/15 05:57:02;;;;;;;30.53;16.30;;;;;;;;;;5079095;28;20215;-70
2021/01/15 05:59:28;;;;;;;32.77;16.03;;;;;;;;;;5058860;28;20168;-70
2021/01/15 06:01:55;;;;;;;31.87;16.50;;;;;;;;;;5086311;28;20212;-70
2021/01/15 06:04:35;;;;;;;31.73;16.47;;;;;;;;;;5070255;28;20275;-70
2021/01/15 06:07:16;;;;;;;32.10;16.53;;;;;;;;;;4381575;28;10000817;-70
2021/01/15 06:09:44;;;;;;;34.23;16.60;;;;;;;;;;5073712;28;20618;-70
2021/01/15 06:12:11;;;;;;;34.37;16.73;;;;;;;;;;5079398;28;20237;-70
2021/01/15 06:14:52;;;;;;;27.60;15.83;;;;;;;;;;5070459;28;20662;-70
2021/01/15 06:17:19;;;;;;;31.20;16.60;;;;;;;;;;5078579;28;20570;-70
2021/01/15 06:19:48;;;;;;;30.87;16.17;;;;;;;;;;5073970;28;20748;-70
2021/01/15 06:22:44;;;;;;;28.23;15.43;;;;;;;;;;5071175;28;20187;-70
2021/01/15 06:25:28;;;;;;;26.13;15.23;;;;;;;;;;5064254;28;20192;-70
2021/01/15 06:27:56;;;;;;;28.57;15.73;;;;;;;;;;5080374;28;20183;-70
2021/01/15 06:30:26;;;;;;;29.80;15.13;;;;;;;;;;5075331;28;20674;-70
2021/01/15 06:32:53;;;;;;;26.77;15.57;;;;;;;;;;5081500;28;20325;-70
2021/01/15 06:35:47;;;;;;;29.43;16.17;;;;;;;;;;5076072;28;20180;-70
2021/01/15 06:38:14;;;;;;;30.30;16.03;;;;;;;;;;5050999;28;20228;-70
2021/01/15 06:40:48;;;;;;;32.20;16.83;;;;;;;;;;5048469;28;20670;-70
2021/01/15 06:43:20;;;;;;;28.90;16.70;;;;;;;;;;5059234;28;20185;-70
2021/01/15 06:45:51;;;;;;;26.23;14.57;;;;;;;;;;5053312;28;20199;-70
2021/01/15 06:48:18;;;;;;;35.47;16.93;;;;;;;;;;5063813;28;20188;-70
2021/01/15 06:50:46;;;;;;;29.90;15.67;;;;;;;;;;5050519;28;20974;-70
2021/01/15 06:53:26;;;;;;;28.93;15.83;;;;;;;;;;5050505;28;20172;-70
2021/01/15 06:55:55;;;;;;;29.57;16.17;;;;;;;;;;5044676;28;20223;-70
2021/01/15 06:58:38;;;;;;;30.93;17.17;;;;;;;;;;5062575;28;20210;-71
2021/01/15 07:01:22;;;;;;;32.83;15.73;;;;;;;;;;5055386;28;20180;-71
2021/01/15 07:04:03;;;;;;;31.83;15.57;;;;;;;;;;5063585;28;20212;-71
2021/01/15 07:06:31;;;;;;;28.60;14.97;;;;;;;;;;5045441;28;20735;-71
2021/01/15 07:08:57;;;;;;;29.27;15.97;;;;;;;;;;5066518;28;20212;-70
2021/01/15 07:11:26;;;;;;;33.30;17.50;;;;;;;;;;5054848;28;20177;-70
2021/01/15 07:13:56;;;;;;;31.33;16.13;;;;;;;;;;5065730;28;20554;-70
2021/01/15 07:16:33;;;;;;;36.10;17.07;;;;;;;;;;5053114;28;20185;-70
2021/01/15 07:19:26;;;;;;;31.73;16.40;;;;;;;;;;5064121;28;20186;-71
2021/01/15 07:22:01;;;;;;;29.67;15.90;;;;;;;;;;5053938;28;20181;-70
2021/01/15 07:24:29;;;;;;;35.67;16.80;;;;;;;;;;5063337;28;20659;-70
2021/01/15 07:26:54;;;;;;;29.30;16.87;;;;;;;;;;5055709;28;20191;-70
2021/01/15 07:29:20;;;;;;;28.93;16.67;;;;;;;;;;5064820;28;20188;-70
2021/01/15 07:31:52;;;;;;;32.60;17.13;;;;;;;;;;5054963;28;20545;-70
2021/01/15 07:34:21;;;;;;;33.00;17.33;;;;;;;;;;5063424;28;20193;-70
2021/01/15 07:36:46;;;;;;;30.50;17.63;;;;;;;;;;5060949;28;20200;-70
2021/01/15 07:39:19;;;;;;;33.00;16.90;;;;;;;;;;5071663;28;20213;-71
2021/01/15 07:41:48;;;;;;;33.90;17.37;;;;;;;;;;5081764;28;20180;-70
2021/01/15 07:44:22;;;;;;;36.90;18.93;;;;;;;;;;5072437;28;20236;-70
2021/01/15 07:46:52;;;;;;;39.23;18.97;;;;;;;;;;5084997;28;20176;-70
2021/01/15 07:49:18;;;;;;;36.17;19.10;;;;;;;;;;5071340;28;20651;-71
2021/01/15 07:52:03;;;;;;;34.63;19.03;;;;;;;;;;5086870;28;20227;-70
2021/01/15 07:55:00;;;;;;;33.13;18.00;;;;;;;;;;5075024;28;20182;-70
2021/01/15 07:57:27;;;;;;;40.30;20.27;;;;;;;;;;5087229;28;20711;-70
2021/01/15 07:59:53;;;;;;;40.67;20.13;;;;;;;;;;5060333;28;20262;-71
2021/01/15 08:02:19;;;;;;;38.20;19.13;;;;;;;;;;5088123;28;20333;-71
2021/01/15 08:04:45;;;;;;;32.93;18.13;;;;;;;;;;5076734;28;20214;-71
2021/01/15 08:07:30;;;;;;;41.67;19.17;;;;;;;;;;5087005;28;20208;-71
2021/01/15 08:09:55;;;;;;;34.50;17.37;;;;;;;;;;5061314;28;20273;-71
2021/01/15 08:12:21;;;;;;;36.97;19.60;;;;;;;;;;5089154;28;20653;-71
2021/01/15 08:14:46;;;;;;;35.67;18.67;;;;;;;;;;5078493;28;20183;-71
2021/01/15 08:17:14;;;;;;;40.70;19.97;;;;;;;;;;5086861;28;20659;-71
2021/01/15 08:19:40;;;;;;;42.43;19.30;;;;;;;;;;5080173;28;20191;-71
2021/01/15 08:22:08;;;;;;;37.37;19.30;;;;;;;;;;5086101;28;20640;-71
2021/01/15 08:24:53;;;;;;;35.13;18.53;;;;;;;;;;5078701;28;20309;-71
2021/01/15 08:27:22;;;;;;;37.10;17.80;;;;;;;;;;5071395;28;20885;-71
2021/01/15 08:29:50;;;;;;;37.60;18.50;;;;;;;;;;5071220;28;20213;-71
2021/01/15 08:32:16;;;;;;;40.43;18.23;;;;;;;;;;5084937;28;20186;-71
2021/01/15 08:34:41;;;;;;;35.57;18.20;;;;;;;;;;5061055;28;20172;-71
2021/01/15 08:37:09;;;;;;;32.73;17.00;;;;;;;;;;5087424;28;20215;-71
2021/01/15 08:39:46;;;;;;;34.03;17.17;;;;;;;;;;5083747;28;20552;-71
2021/01/15 08:42:13;;;;;;;32.97;17.07;;;;;;;;;;5077670;28;20194;-71
2021/01/15 08:44:39;;;;;;;34.43;17.57;;;;;;;;;;5087781;28;20645;-71
2021/01/15 08:47:09;;;;;;;30.57;16.07;;;;;;;;;;5079081;28;20191;-71
2021/01/15 08:49:34;;;;;;;32.43;17.60;;;;;;;;;;5084335;28;20262;-71
2021/01/15 08:52:01;;;;;;;32.50;18.03;;;;;;;;;;5076326;28;20310;-71
2021/01/15 08:54:28;;;;;;;36.97;17.73;;;;;;;;;;5085904;28;20172;-71
2021/01/15 08:56:55;;;;;;;35.47;18.27;;;;;;;;;;5079297;28;20188;-71
2021/01/15 08:59:28;;;;;;;33.73;17.53;;;;;;;;;;5085456;28;20172;-71
2021/01/15 09:01:56;;;;;;;30.23;16.90;;;;;;;;;;5075954;28;20192;-71
2021/01/15 09:04:24;;;;;;;32.33;17.33;;;;;;;;;;5083688;28;20196;-71
2021/01/15 09:06:53;;;;;;;32.90;17.57;;;;;;;;;;5071943;28;20215;-71
2021/01/15 09:09:20;;;;;;;34.60;17.83;;;;;;;;;;5084704;28;20592;-71
2021/01/15 09:11:48;;;;;;;31.47;16.60;;;;;;;;;;5059876;28;20395;-71
2021/01/15 09:14:14;;;;;;;33.87;17.37;;;;;;;;;;5086666;28;20250;-71
2021/01/15 09:16:41;;;;;;;28.73;17.47;;;;;;;;;;5085462;28;20198;-71
2021/01/15 09:19:09;;;;;;;28.83;16.87;;;;;;;;;;5082834;28;20259;-71
2021/01/15 09:21:48;;;;;;;33.07;15.83;;;;;;;;;;5084140;28;20188;-71
2021/01/15 09:24:15;;;;;;;29.50;15.87;;;;;;;;;;5057917;28;20206;-71
2021/01/15 09:26:41;;;;;;;28.30;15.37;;;;;;;;;;5086101;28;20177;-71
2021/01/15 09:29:07;;;;;;;29.63;15.60;;;;;;;;;;5078575;28;20546;-71
2021/01/15 09:31:32;;;;;;;29.33;14.77;;;;;;;;;;5088246;28;20257;-71
2021/01/15 09:33:58;;;;;;;28.57;14.73;;;;;;;;;;5079729;28;20582;-71
2021/01/15 09:36:26;;;;;;;28.93;15.17;;;;;;;;;;5070042;28;20172;-71
2021/01/15 09:38:54;;;;;;;31.23;15.43;;;;;;;;;;5077653;28;20252;-71
2021/01/15 09:41:19;;;;;;;29.13;15.03;;;;;;;;;;5088126;28;20262;-71
2021/01/15 09:43:45;;;;;;;24.57;14.40;;;;;;;;;;5077511;28;20294;-71
2021/01/15 09:46:21;;;;;;;25.03;14.00;;;;;;;;;;5085111;28;20606;-71
2021/01/15 09:48:47;;;;;;;24.93;14.80;;;;;;;;;;5072881;28;20650;-71
2021/01/15 09:51:12;;;;;;;25.93;14.53;;;;;;;;;;5086467;28;20195;-71
2021/01/15 09:53:37;;;;;;;23.57;13.83;;;;;;;;;;5071835;28;20191;-71
2021/01/15 09:56:03;;;;;;;24.20;13.30;;;;;;;;;;5088159;28;20714;-71
2021/01/15 09:58:28;;;;;;;23.53;13.53;;;;;;;;;;5085028;28;20582;-71
2021/01/15 10:00:54;;;;;;;23.23;14.03;;;;;;;;;;5075581;28;20271;-71
2021/01/15 10:03:19;;;;;;;27.40;15.30;;;;;;;;;;5080773;28;20202;-71
2021/01/15 10:05:44;;;;;;;25.43;14.43;;;;;;;;;;5075761;28;20549;-71
2021/01/15 10:08:10;;;;;;;24.23;14.60;;;;;;;;;;5083384;28;20209;-71
2021/01/15 10:10:35;;;;;;;21.47;13.20;;;;;;;;;;5075584;28;20191;-71
2021/01/15 10:13:00;;;;;;;24.60;13.80;;;;;;;;;;5085148;28;20208;-71
2021/01/15 10:15:25;;;;;;;23.10;13.23;;;;;;;;;;5075710;28;20179;-71
2021/01/15 10:17:51;;;;;;;23.50;13.93;;;;;;;;;;5082233;28;20184;-71
2021/01/15 10:20:18;;;;;;;24.97;13.80;;;;;;;;;;5076611;28;20520;-71
2021/01/15 10:22:44;;;;;;;24.53;13.60;;;;;;;;;;5086624;28;20218;-71
2021/01/15 10:25:10;;;;;;;21.27;13.67;;;;;;;;;;5079586;28;20239;-71
2021/01/15 10:27:35;;;;;;;21.90;13.13;;;;;;;;;;5083371;28;21006;-70
2021/01/15 10:30:00;;;;;;;24.37;13.70;;;;;;;;;;5086595;28;20180;-71
2021/01/15 10:32:26;;;;;;;22.90;13.43;;;;;;;;;;5075972;28;20184;-71
2021/01/15 10:34:51;;;;;;;24.20;13.70;;;;;;;;;;5085971;28;20172;-71
2021/01/15 10:37:16;;;;;;;22.47;13.20;;;;;;;;;;5075650;28;20310;-71
2021/01/15 10:39:42;;;;;;;24.43;13.30;;;;;;;;;;5085397;28;20227;-71
2021/01/15 10:42:07;;;;;;;23.30;13.70;;;;;;;;;;5074763;28;20189;-71
2021/01/15 10:44:32;;;;;;;24.57;13.77;;;;;;;;;;5083653;28;20739;-71
2021/01/15 10:46:58;;;;;;;23.03;13.00;;;;;;;;;;5073565;28;20184;-71
2021/01/15 10:49:23;;;;;;;23.50;14.17;;;;;;;;;;5087908;28;20258;-71
2021/01/15 10:51:51;;;;;;;20.27;13.27;;;;;;;;;;5075537;28;20192;-71
2021/01/15 10:54:17;;;;;;;23.50;14.43;;;;;;;;;;5087202;28;20172;-71
2021/01/15 10:56:45;;;;;;;26.13;14.33;;;;;;;;;;5076147;28;20736;-71
2021/01/15 10:59:11;;;;;;;24.47;13.33;;;;;;;;;;5084236;28;20206;-71
2021/01/15 11:01:38;;;;;;;29.57;13.83;;;;;;;;;;5080687;28;20663;-71
2021/01/15 11:04:06;;;;;;;24.07;13.40;;;;;;;;;;5075603;28;20290;-71
2021/01/15 11:06:31;;;;;;;22.30;14.07;;;;;;;;;;5081364;28;20238;-71
2021/01/15 11:08:56;;;;;;;21.50;13.10;;;;;;;;;;5070560;28;20212;-71
2021/01/15 11:11:22;;;;;;;25.17;13.97;;;;;;;;;;5087044;28;20223;-71
2021/01/15 11:13:47;;;;;;;27.07;15.03;;;;;;;;;;5069697;28;20187;-71
2021/01/15 11:16:13;;;;;;;26.53;15.90;;;;;;;;;;5081848;28;20192;-71
2021/01/15 11:18:39;;;;;;;25.03;14.13;;;;;;;;;;5075343;28;20180;-71
2021/01/15 11:21:05;;;;;;;23.97;14.17;;;;;;;;;;5084136;28;20306;-71
2021/01/15 11:23:31;;;;;;;21.73;12.87;;;;;;;;;;5077365;28;20683;-71
2021/01/15 11:25:57;;;;;;;23.13;13.77;;;;;;;;;;5087195;28;20180;-71
2021/01/15 11:28:22;;;;;;;23.73;13.80;;;;;;;;;;5083429;28;20237;-71
2021/01/15 11:30:47;;;;;;;23.30;12.80;;;;;;;;;;5084104;28;20189;-71
2021/01/15 11:33:12;;;;;;;21.47;13.27;;;;;;;;;;5071487;28;20173;-71
2021/01/15 11:35:38;;;;;;;24.20;13.67;;;;;;;;;;5076984;28;20192;-71
2021/01/15 11:38:03;;;;;;;19.97;12.70;;;;;;;;;;5088770;28;20223;-71
2021/01/15 11:40:28;;;;;;;21.80;14.00;;;;;;;;;;5076646;28;20184;-71
2021/01/15 11:42:58;;;;;;;22.40;13.73;;;;;;;;;;5089352;28;20180;-71
2021/01/15 11:45:24;;;;;;;21.30;12.63;;;;;;;;;;5077441;28;20199;-71
2021/01/15 11:47:51;;;;;;;25.57;13.77;;;;;;;;;;5088622;28;20656;-71
2021/01/15 11:50:17;;;;;;;21.07;13.10;;;;;;;;;;5078289;28;20203;-71
2021/01/15 11:52:43;;;;;;;21.50;13.10;;;;;;;;;;5087144;28;20180;-71
2021/01/15 11:55:09;;;;;;;21.27;13.70;;;;;;;;;;5078229;28;20679;-71
2021/01/15 11:57:34;;;;;;;22.43;14.23;;;;;;;;;;5087575;28;20763;-71
2021/01/15 12:00:00;;;;;;;22.20;13.67;;;;;;;;;;5075536;28;20199;-70
2021/01/15 12:02:25;;;;;;;21.93;12.97;;;;;;;;;;5088971;28;20237;-70
2021/01/15 12:04:50;;;;;;;26.33;13.90;;;;;;;;;;5086837;28;20200;-70
2021/01/15 12:07:15;;;;;;;22.90;13.33;;;;;;;;;;5079031;28;20208;-71
2021/01/15 12:09:41;;;;;;;26.17;14.13;;;;;;;;;;5069297;28;20678;-70
2021/01/15 12:12:06;;;;;;;22.17;13.67;;;;;;;;;;5064300;28;20285;-70
2021/01/15 12:14:32;;;;;;;21.97;14.10;;;;;;;;;;5087050;28;20248;-70
2021/01/15 12:16:58;;;;;;;22.10;13.10;;;;;;;;;;5080041;28;20246;-70
2021/01/15 12:19:23;;;;;;;20.77;13.60;;;;;;;;;;5087616;28;20604;-70
2021/01/15 12:21:49;;;;;;;24.13;14.57;;;;;;;;;;5079001;28;20211;-70
2021/01/15 12:24:16;;;;;;;23.90;14.73;;;;;;;;;;5087328;28;20287;-70
2021/01/15 12:26:41;;;;;;;23.73;14.83;;;;;;;;;;5079079;28;20192;-70
2021/01/15 12:29:07;;;;;;;23.13;14.40;;;;;;;;;;5090092;28;20192;-70
2021/01/15 12:31:33;;;;;;;22.57;14.97;;;;;;;;;;5088959;28;20196;-70
2021/01/15 12:33:58;;;;;;;23.17;13.37;;;;;;;;;;5078181;28;20630;-70
2021/01/15 12:36:23;;;;;;;23.50;13.47;;;;;;;;;;5088579;28;20181;-70
2021/01/15 12:38:49;;;;;;;25.70;13.60;;;;;;;;;;5078145;28;20231;-70
2021/01/15 12:41:17;;;;;;;23.13;13.57;;;;;;;;;;5086756;28;20195;-70
2021/01/15 12:43:42;;;;;;;18.57;12.13;;;;;;;;;;5075110;28;20207;-71
2021/01/15 12:46:10;;;;;;;20.63;13.20;;;;;;;;;;5088024;28;20195;-70
2021/01/15 12:48:35;;;;;;;21.87;12.77;;;;;;;;;;5073243;28;20724;-70
2021/01/15 12:51:00;;;;;;;20.57;13.03;;;;;;;;;;5088167;28;20184;-70
2021/01/15 12:53:25;;;;;;;18.53;12.03;;;;;;;;;;5078720;28;20273;-71
2021/01/15 12:55:51;;;;;;;23.43;12.70;;;;;;;;;;5086333;28;20643;-70
2021/01/15 12:58:17;;;;;;;19.00;11.43;;;;;;;;;;5077288;28;20614;-70
2021/01/15 13:00:42;;;;;;;20.47;11.87;;;;;;;;;;5087623;28;20208;-70
2021/01/15 13:03:07;;;;;;;16.73;10.63;;;;;;;;;;5087024;28;20192;-70
2021/01/15 13:05:33;;;;;;;19.60;10.73;;;;;;;;;;5077908;28;20215;-70
2021/01/15 13:07:58;;;;;;;14.90;9.90;;;;;;;;;;5083697;28;20211;-70
2021/01/15 13:10:24;;;;;;;16.80;10.23;;;;;;;;;;5078219;28;20199;-70
2021/01/15 13:12:49;;;;;;;16.17;10.10;;;;;;;;;;5083995;28;20245;-70
2021/01/15 13:15:15;;;;;;;15.37;9.33;;;;;;;;;;5077654;28;20187;-70
2021/01/15 13:18:07;;;;;;;15.57;9.53;;;;;;;;;;5084008;28;20188;-70
2021/01/15 13:20:32;;;;;;;16.10;10.10;;;;;;;;;;5070324;28;20286;-70
2021/01/15 13:23:04;;;;;;;18.37;9.67;;;;;;;;;;5066114;28;20299;-70
2021/01/15 13:25:31;;;;;;;15.80;9.50;;;;;;;;;;5079128;28;21407;-71
2021/01/15 13:27:57;;;;;;;12.93;8.63;;;;;;;;;;5087224;28;20672;-70
2021/01/15 13:30:23;;;;;;;15.60;8.57;;;;;;;;;;5079441;28;20215;-70
2021/01/15 13:32:48;;;;;;;14.27;8.63;;;;;;;;;;5085525;28;20667;-70
2021/01/15 13:35:14;;;;;;;13.60;8.30;;;;;;;;;;5080853;28;20187;-71
2021/01/15 13:37:40;;;;;;;15.27;8.17;;;;;;;;;;5084393;28;22640;-70
2021/01/15 13:40:10;;;;;;;15.00;8.73;;;;;;;;;;5082941;28;20191;-71
2021/01/15 13:42:37;;;;;;;13.57;7.53;;;;;;;;;;5066802;28;20180;-71
2021/01/15 13:45:05;;;;;;;15.63;8.13;;;;;;;;;;5084618;28;20204;-70
2021/01/15 13:47:30;;;;;;;11.90;7.20;;;;;;;;;;5078301;28;20210;-71
2021/01/15 13:49:56;;;;;;;14.77;6.73;;;;;;;;;;5081702;28;20204;-70
2021/01/15 13:52:21;;;;;;;10.27;6.30;;;;;;;;;;5077046;28;20186;-70
2021/01/15 13:54:47;;;;;;;14.17;7.33;;;;;;;;;;5084393;28;20180;-71
2021/01/15 13:57:12;;;;;;;11.57;6.80;;;;;;;;;;5079698;28;20195;-71
2021/01/15 13:59:37;;;;;;;12.47;7.30;;;;;;;;;;5085374;28;20196;-71
2021/01/15 14:02:03;;;;;;;12.57;6.50;;;;;;;;;;5077105;28;20192;-71
2021/01/15 14:04:28;;;;;;;12.13;7.10;;;;;;;;;;5087143;28;20203;-70
2021/01/15 14:06:53;;;;;;;10.27;6.70;;;;;;;;;;5075531;28;20694;-70
2021/01/15 14:09:19;;;;;;;10.73;6.87;;;;;;;;;;5087236;28;20187;-70
2021/01/15 14:11:44;;;;;;;11.60;6.50;;;;;;;;;;5075847;28;20199;-71
2021/01/15 14:14:09;;;;;;;10.43;6.33;;;;;;;;;;5061328;28;20416;-71
2021/01/15 14:16:35;;;;;;;10.77;6.23;;;;;;;;;;5086042;28;20183;-71
2021/01/15 14:19:00;;;;;;;11.43;6.63;;;;;;;;;;5078597;28;20200;-70
2021/01/15 14:21:25;;;;;;;11.00;6.50;;;;;;;;;;5084981;28;22140;-70
2021/01/15 14:23:51;;;;;;;9.90;6.00;;;;;;;;;;5079523;28;20235;-70